sensor_id;sensor_type;location;lat;lon;timestamp;P1;durP1;ratioP1;P2;durP2;ratioP2
75746;SDS011;64363;52.198;21.020;2023-04-25T00:01:15;31.33;;;18.13;;
75746;SDS011;64363;52.198;21.020;2023-04-25T00:03:41;31.95;;;18.52;;
75746;SDS011;64363;52.198;21.020;2023-04-25T00:06:06;32.55;;;18.35;;
75746;SDS011;64363;52.198;21.020;2023-04-25T00:08:33;32.75;;;18.70;;
75746;SDS011;64363;52.198;21.020;2023-04-25T00:10:58;35.70;;;19.08;;
75746;SDS011;64363;52.198;21.020;2023-04-25T00:13:25;35.28;;;19.10;;
75746;SDS011;64363;52.198;21.020;2023-04-25T00:15:51;31.45;;;18.70;;
75746;SDS011;64363;52.198;21.020;2023-04-25T00:18:21;36.90;;;19.80;;
75746;SDS011;64363;52.198;21.020;2023-04-25T00:20:47;34.28;;;20.58;;
75746;SDS011;64363;52.198;21.020;2023-04-25T00:23:14;28.92;;;18.27;;
75746;SDS011;64363;52.198;21.020;2023-04-25T00:25:46;36.97;;;19.77;;
75746;SDS011;64363;52.198;21.020;2023-04-25T00:28:13;32.67;;;18.35;;
75746;SDS011;64363;52.198;21.020;2023-04-25T00:30:39;32.45;;;20.05;;
75746;SDS011;64363;52.198;21.020;2023-04-25T00:33:05;35.10;;;19.92;;
75746;SDS011;64363;52.198;21.020;2023-04-25T00:35:31;31.98;;;20.63;;
75746;SDS011;64363;52.198;21.020;2023-04-25T00:37:57;35.08;;;18.65;;
75746;SDS011;64363;52.198;21.020;2023-04-25T00:40:23;33.55;;;19.23;;
75746;SDS011;64363;52.198;21.020;2023-04-25T00:42:49;37.55;;;20.77;;
75746;SDS011;64363;52.198;21.020;2023-04-25T00:45:17;34.40;;;20.02;;
75746;SDS011;64363;52.198;21.020;2023-04-25T00:47:44;37.50;;;20.95;;
75746;SDS011;64363;52.198;21.020;2023-04-25T00:50:10;34.28;;;19.98;;
75746;SDS011;64363;52.198;21.020;2023-04-25T00:52:41;35.22;;;20.52;;
75746;SDS011;64363;52.198;21.020;2023-04-25T00:55:09;36.03;;;20.17;;
75746;SDS011;64363;52.198;21.020;2023-04-25T00:57:36;39.38;;;20.02;;
75746;SDS011;64363;52.198;21.020;2023-04-25T01:00:04;33.03;;;18.80;;
75746;SDS011;64363;52.198;21.020;2023-04-25T01:02:32;45.35;;;22.65;;
75746;SDS011;64363;52.198;21.020;2023-04-25T01:04:58;39.55;;;22.48;;
75746;SDS011;64363;52.198;21.020;2023-04-25T01:07:24;37.25;;;21.73;;
75746;SDS011;64363;52.198;21.020;2023-04-25T01:09:51;36.20;;;20.75;;
75746;SDS011;64363;52.198;21.020;2023-04-25T01:12:17;43.78;;;22.33;;
75746;SDS011;64363;52.198;21.020;2023-04-25T01:14:43;38.85;;;21.33;;
75746;SDS011;64363;52.198;21.020;2023-04-25T01:17:10;37.13;;;21.63;;
75746;SDS011;64363;52.198;21.020;2023-04-25T01:19:35;36.35;;;21.83;;
75746;SDS011;64363;52.198;21.020;2023-04-25T01:22:02;36.53;;;22.73;;
75746;SDS011;64363;52.198;21.020;2023-04-25T01:24:29;42.58;;;22.40;;
75746;SDS011;64363;52.198;21.020;2023-04-25T01:26:56;40.05;;;21.70;;
75746;SDS011;64363;52.198;21.020;2023-04-25T01:29:23;34.78;;;20.10;;
75746;SDS011;64363;52.198;21.020;2023-04-25T01:31:51;53.50;;;24.85;;
75746;SDS011;64363;52.198;21.020;2023-04-25T01:34:17;40.10;;;21.35;;
75746;SDS011;64363;52.198;21.020;2023-04-25T01:36:44;33.92;;;19.00;;
75746;SDS011;64363;52.198;21.020;2023-04-25T01:39:09;34.35;;;18.55;;
75746;SDS011;64363;52.198;21.020;2023-04-25T01:41:35;36.20;;;19.33;;
75746;SDS011;64363;52.198;21.020;2023-04-25T01:44:02;32.05;;;18.17;;
75746;SDS011;64363;52.198;21.020;2023-04-25T01:46:30;32.80;;;18.23;;
75746;SDS011;64363;52.198;21.020;2023-04-25T01:48:55;37.80;;;19.77;;
75746;SDS011;64363;52.198;21.020;2023-04-25T01:51:21;33.33;;;18.10;;
75746;SDS011;64363;52.198;21.020;2023-04-25T01:53:47;31.15;;;18.05;;
75746;SDS011;64363;52.198;21.020;2023-04-25T01:56:13;31.60;;;18.42;;
75746;SDS011;64363;52.198;21.020;2023-04-25T01:58:38;33.92;;;18.98;;
75746;SDS011;64363;52.198;21.020;2023-04-25T02:01:04;50.78;;;23.90;;
75746;SDS011;64363;52.198;21.020;2023-04-25T02:03:30;32.42;;;17.08;;
75746;SDS011;64363;52.198;21.020;2023-04-25T02:05:57;32.28;;;18.23;;
75746;SDS011;64363;52.198;21.020;2023-04-25T02:08:22;30.55;;;17.52;;
75746;SDS011;64363;52.198;21.020;2023-04-25T02:10:48;29.63;;;15.30;;
75746;SDS011;64363;52.198;21.020;2023-04-25T02:13:14;53.40;;;24.65;;
75746;SDS011;64363;52.198;21.020;2023-04-25T02:15:39;33.45;;;18.23;;
75746;SDS011;64363;52.198;21.020;2023-04-25T02:18:06;32.60;;;16.10;;
75746;SDS011;64363;52.198;21.020;2023-04-25T02:20:32;34.58;;;17.00;;
75746;SDS011;64363;52.198;21.020;2023-04-25T02:22:58;42.08;;;19.80;;
75746;SDS011;64363;52.198;21.020;2023-04-25T02:25:24;38.95;;;20.10;;
75746;SDS011;64363;52.198;21.020;2023-04-25T02:27:50;34.40;;;16.20;;
75746;SDS011;64363;52.198;21.020;2023-04-25T02:30:16;30.02;;;16.42;;
75746;SDS011;64363;52.198;21.020;2023-04-25T02:32:42;28.55;;;15.70;;
75746;SDS011;64363;52.198;21.020;2023-04-25T02:35:08;33.33;;;16.55;;
75746;SDS011;64363;52.198;21.020;2023-04-25T02:37:34;31.05;;;17.30;;
75746;SDS011;64363;52.198;21.020;2023-04-25T02:40:02;29.73;;;15.35;;
75746;SDS011;64363;52.198;21.020;2023-04-25T02:42:30;28.92;;;14.15;;
75746;SDS011;64363;52.198;21.020;2023-04-25T02:44:56;30.10;;;15.43;;
75746;SDS011;64363;52.198;21.020;2023-04-25T02:47:22;26.90;;;15.45;;
75746;SDS011;64363;52.198;21.020;2023-04-25T02:49:48;26.23;;;14.57;;
75746;SDS011;64363;52.198;21.020;2023-04-25T02:52:13;29.00;;;14.90;;
75746;SDS011;64363;52.198;21.020;2023-04-25T02:54:40;29.42;;;15.45;;
75746;SDS011;64363;52.198;21.020;2023-04-25T02:57:05;26.85;;;14.43;;
75746;SDS011;64363;52.198;21.020;2023-04-25T02:59:32;27.90;;;15.32;;
75746;SDS011;64363;52.198;21.020;2023-04-25T03:01:57;30.27;;;15.93;;
75746;SDS011;64363;52.198;21.020;2023-04-25T03:04:23;26.77;;;14.57;;
75746;SDS011;64363;52.198;21.020;2023-04-25T03:06:52;27.67;;;14.07;;
75746;SDS011;64363;52.198;21.020;2023-04-25T03:09:18;27.65;;;14.25;;
75746;SDS011;64363;52.198;21.020;2023-04-25T03:11:44;31.30;;;15.55;;
75746;SDS011;64363;52.198;21.020;2023-04-25T03:14:11;27.88;;;14.77;;
75746;SDS011;64363;52.198;21.020;2023-04-25T03:16:37;29.90;;;14.10;;
75746;SDS011;64363;52.198;21.020;2023-04-25T03:19:03;25.38;;;14.35;;
75746;SDS011;64363;52.198;21.020;2023-04-25T03:21:30;29.30;;;14.25;;
75746;SDS011;64363;52.198;21.020;2023-04-25T03:24:02;27.92;;;15.05;;
75746;SDS011;64363;52.198;21.020;2023-04-25T03:26:28;29.00;;;14.68;;
75746;SDS011;64363;52.198;21.020;2023-04-25T03:28:54;27.33;;;14.50;;
75746;SDS011;64363;52.198;21.020;2023-04-25T03:31:20;24.52;;;13.80;;
75746;SDS011;64363;52.198;21.020;2023-04-25T03:33:46;26.75;;;14.13;;
75746;SDS011;64363;52.198;21.020;2023-04-25T03:36:11;24.42;;;14.18;;
75746;SDS011;64363;52.198;21.020;2023-04-25T03:38:37;27.23;;;13.48;;
75746;SDS011;64363;52.198;21.020;2023-04-25T03:41:03;23.10;;;13.38;;
75746;SDS011;64363;52.198;21.020;2023-04-25T03:43:28;24.35;;;13.05;;
75746;SDS011;64363;52.198;21.020;2023-04-25T03:45:54;29.35;;;14.95;;
75746;SDS011;64363;52.198;21.020;2023-04-25T03:48:20;30.83;;;13.43;;
75746;SDS011;64363;52.198;21.020;2023-04-25T03:50:51;23.85;;;13.75;;
75746;SDS011;64363;52.198;21.020;2023-04-25T03:53:17;24.85;;;14.20;;
75746;SDS011;64363;52.198;21.020;2023-04-25T03:55:43;21.17;;;12.68;;
75746;SDS011;64363;52.198;21.020;2023-04-25T03:58:08;20.92;;;11.75;;
75746;SDS011;64363;52.198;21.020;2023-04-25T04:00:34;24.38;;;11.93;;
75746;SDS011;64363;52.198;21.020;2023-04-25T04:03:01;27.70;;;13.52;;
75746;SDS011;64363;52.198;21.020;2023-04-25T04:05:27;21.50;;;12.40;;
75746;SDS011;64363;52.198;21.020;2023-04-25T04:07:53;23.88;;;13.10;;
75746;SDS011;64363;52.198;21.020;2023-04-25T04:10:19;24.65;;;12.73;;
75746;SDS011;64363;52.198;21.020;2023-04-25T04:12:44;21.20;;;11.52;;
75746;SDS011;64363;52.198;21.020;2023-04-25T04:15:10;23.42;;;12.27;;
75746;SDS011;64363;52.198;21.020;2023-04-25T04:17:37;21.02;;;11.23;;
75746;SDS011;64363;52.198;21.020;2023-04-25T04:20:03;23.20;;;11.93;;
75746;SDS011;64363;52.198;21.020;2023-04-25T04:22:29;20.15;;;12.15;;
75746;SDS011;64363;52.198;21.020;2023-04-25T04:24:55;20.77;;;11.15;;
75746;SDS011;64363;52.198;21.020;2023-04-25T04:27:22;19.65;;;11.48;;
75746;SDS011;64363;52.198;21.020;2023-04-25T04:29:48;21.15;;;12.38;;
75746;SDS011;64363;52.198;21.020;2023-04-25T04:32:15;21.30;;;12.50;;
75746;SDS011;64363;52.198;21.020;2023-04-25T04:34:41;22.80;;;11.68;;
75746;SDS011;64363;52.198;21.020;2023-04-25T04:37:07;19.50;;;10.82;;
75746;SDS011;64363;52.198;21.020;2023-04-25T04:39:33;20.58;;;11.93;;
75746;SDS011;64363;52.198;21.020;2023-04-25T04:41:59;20.42;;;11.45;;
75746;SDS011;64363;52.198;21.020;2023-04-25T04:44:27;19.88;;;11.95;;
75746;SDS011;64363;52.198;21.020;2023-04-25T04:46:54;22.52;;;13.40;;
75746;SDS011;64363;52.198;21.020;2023-04-25T04:49:20;16.98;;;10.90;;
75746;SDS011;64363;52.198;21.020;2023-04-25T04:51:46;27.23;;;11.55;;
75746;SDS011;64363;52.198;21.020;2023-04-25T04:54:12;19.67;;;11.18;;
75746;SDS011;64363;52.198;21.020;2023-04-25T04:56:39;18.17;;;11.30;;
75746;SDS011;64363;52.198;21.020;2023-04-25T04:59:04;16.88;;;10.73;;
75746;SDS011;64363;52.198;21.020;2023-04-25T05:01:30;18.08;;;11.20;;
75746;SDS011;64363;52.198;21.020;2023-04-25T05:03:56;19.75;;;11.02;;
75746;SDS011;64363;52.198;21.020;2023-04-25T05:06:26;24.33;;;11.98;;
75746;SDS011;64363;52.198;21.020;2023-04-25T05:08:53;18.65;;;10.63;;
75746;SDS011;64363;52.198;21.020;2023-04-25T05:11:19;24.15;;;12.85;;
75746;SDS011;64363;52.198;21.020;2023-04-25T05:13:46;21.98;;;12.73;;
75746;SDS011;64363;52.198;21.020;2023-04-25T05:16:12;21.58;;;11.77;;
75746;SDS011;64363;52.198;21.020;2023-04-25T05:18:38;20.77;;;12.38;;
75746;SDS011;64363;52.198;21.020;2023-04-25T05:21:05;20.45;;;13.30;;
75746;SDS011;64363;52.198;21.020;2023-04-25T05:23:31;22.58;;;12.20;;
75746;SDS011;64363;52.198;21.020;2023-04-25T05:25:58;23.20;;;12.50;;
75746;SDS011;64363;52.198;21.020;2023-04-25T05:28:24;24.10;;;13.63;;
75746;SDS011;64363;52.198;21.020;2023-04-25T05:30:50;22.38;;;13.32;;
75746;SDS011;64363;52.198;21.020;2023-04-25T05:33:15;21.83;;;13.23;;
75746;SDS011;64363;52.198;21.020;2023-04-25T05:35:41;22.35;;;13.38;;
75746;SDS011;64363;52.198;21.020;2023-04-25T05:38:07;22.42;;;13.13;;
75746;SDS011;64363;52.198;21.020;2023-04-25T05:40:33;20.73;;;11.82;;
75746;SDS011;64363;52.198;21.020;2023-04-25T05:42:59;20.50;;;11.90;;
75746;SDS011;64363;52.198;21.020;2023-04-25T05:45:25;17.75;;;11.30;;
75746;SDS011;64363;52.198;21.020;2023-04-25T05:47:51;23.45;;;12.52;;
75746;SDS011;64363;52.198;21.020;2023-04-25T05:50:17;18.23;;;11.63;;
75746;SDS011;64363;52.198;21.020;2023-04-25T05:52:42;21.83;;;13.15;;
75746;SDS011;64363;52.198;21.020;2023-04-25T05:55:08;20.63;;;12.63;;
75746;SDS011;64363;52.198;21.020;2023-04-25T05:57:34;20.23;;;12.93;;
75746;SDS011;64363;52.198;21.020;2023-04-25T06:00:00;22.00;;;12.63;;
75746;SDS011;64363;52.198;21.020;2023-04-25T06:02:26;21.92;;;14.20;;
75746;SDS011;64363;52.198;21.020;2023-04-25T06:04:52;21.77;;;13.18;;
75746;SDS011;64363;52.198;21.020;2023-04-25T06:07:21;21.63;;;12.65;;
75746;SDS011;64363;52.198;21.020;2023-04-25T06:09:47;20.65;;;13.60;;
75746;SDS011;64363;52.198;21.020;2023-04-25T06:12:12;21.60;;;13.98;;
75746;SDS011;64363;52.198;21.020;2023-04-25T06:14:38;22.48;;;13.88;;
75746;SDS011;64363;52.198;21.020;2023-04-25T06:17:04;23.98;;;14.98;;
75746;SDS011;64363;52.198;21.020;2023-04-25T06:19:34;23.70;;;13.90;;
75746;SDS011;64363;52.198;21.020;2023-04-25T06:22:00;23.92;;;13.88;;
75746;SDS011;64363;52.198;21.020;2023-04-25T06:24:27;27.40;;;14.82;;
75746;SDS011;64363;52.198;21.020;2023-04-25T06:26:53;21.27;;;13.95;;
75746;SDS011;64363;52.198;21.020;2023-04-25T06:29:19;19.80;;;12.52;;
75746;SDS011;64363;52.198;21.020;2023-04-25T06:31:45;25.30;;;13.50;;
75746;SDS011;64363;52.198;21.020;2023-04-25T06:34:16;25.70;;;14.10;;
75746;SDS011;64363;52.198;21.020;2023-04-25T06:36:42;24.42;;;14.30;;
75746;SDS011;64363;52.198;21.020;2023-04-25T06:39:10;22.88;;;14.30;;
75746;SDS011;64363;52.198;21.020;2023-04-25T06:41:36;21.63;;;13.15;;
75746;SDS011;64363;52.198;21.020;2023-04-25T06:44:02;23.38;;;13.88;;
75746;SDS011;64363;52.198;21.020;2023-04-25T06:46:27;22.17;;;12.93;;
75746;SDS011;64363;52.198;21.020;2023-04-25T06:48:53;24.05;;;13.32;;
75746;SDS011;64363;52.198;21.020;2023-04-25T06:51:19;22.63;;;12.02;;
75746;SDS011;64363;52.198;21.020;2023-04-25T06:53:45;23.35;;;11.60;;
75746;SDS011;64363;52.198;21.020;2023-04-25T06:56:10;20.98;;;12.48;;
75746;SDS011;64363;52.198;21.020;2023-04-25T06:58:36;22.17;;;11.57;;
75746;SDS011;64363;52.198;21.020;2023-04-25T07:01:02;16.63;;;11.18;;
75746;SDS011;64363;52.198;21.020;2023-04-25T07:03:28;21.60;;;11.32;;
75746;SDS011;64363;52.198;21.020;2023-04-25T07:05:54;23.02;;;12.30;;
75746;SDS011;64363;52.198;21.020;2023-04-25T07:08:20;24.17;;;11.88;;
75746;SDS011;64363;52.198;21.020;2023-04-25T07:10:46;23.23;;;13.73;;
75746;SDS011;64363;52.198;21.020;2023-04-25T07:13:12;20.75;;;12.38;;
75746;SDS011;64363;52.198;21.020;2023-04-25T07:15:38;18.77;;;12.52;;
75746;SDS011;64363;52.198;21.020;2023-04-25T07:18:04;20.42;;;12.30;;
75746;SDS011;64363;52.198;21.020;2023-04-25T07:20:30;20.60;;;11.93;;
75746;SDS011;64363;52.198;21.020;2023-04-25T07:22:56;19.33;;;11.13;;
75746;SDS011;64363;52.198;21.020;2023-04-25T07:25:22;18.23;;;11.07;;
75746;SDS011;64363;52.198;21.020;2023-04-25T07:27:48;18.70;;;11.27;;
75746;SDS011;64363;52.198;21.020;2023-04-25T07:30:14;18.02;;;10.27;;
75746;SDS011;64363;52.198;21.020;2023-04-25T07:32:40;15.30;;;9.55;;
75746;SDS011;64363;52.198;21.020;2023-04-25T07:35:05;16.05;;;11.48;;
75746;SDS011;64363;52.198;21.020;2023-04-25T07:37:33;20.73;;;10.10;;
75746;SDS011;64363;52.198;21.020;2023-04-25T07:40:02;16.25;;;9.68;;
75746;SDS011;64363;52.198;21.020;2023-04-25T07:42:29;16.83;;;10.52;;
75746;SDS011;64363;52.198;21.020;2023-04-25T07:44:55;17.02;;;10.93;;
75746;SDS011;64363;52.198;21.020;2023-04-25T07:47:21;18.77;;;10.75;;
75746;SDS011;64363;52.198;21.020;2023-04-25T07:49:47;14.65;;;10.32;;
75746;SDS011;64363;52.198;21.020;2023-04-25T07:52:13;17.08;;;11.18;;
75746;SDS011;64363;52.198;21.020;2023-04-25T07:54:39;21.42;;;10.48;;
75746;SDS011;64363;52.198;21.020;2023-04-25T07:57:04;13.50;;;9.88;;
75746;SDS011;64363;52.198;21.020;2023-04-25T07:59:32;14.45;;;9.80;;
75746;SDS011;64363;52.198;21.020;2023-04-25T08:01:57;18.35;;;11.55;;
75746;SDS011;64363;52.198;21.020;2023-04-25T08:04:23;16.13;;;9.95;;
75746;SDS011;64363;52.198;21.020;2023-04-25T08:06:50;17.20;;;9.18;;
75746;SDS011;64363;52.198;21.020;2023-04-25T08:09:17;16.25;;;9.93;;
75746;SDS011;64363;52.198;21.020;2023-04-25T08:11:43;14.48;;;9.10;;
75746;SDS011;64363;52.198;21.020;2023-04-25T08:14:10;13.90;;;9.23;;
75746;SDS011;64363;52.198;21.020;2023-04-25T08:16:36;13.63;;;9.18;;
75746;SDS011;64363;52.198;21.020;2023-04-25T08:19:02;15.52;;;8.95;;
75746;SDS011;64363;52.198;21.020;2023-04-25T08:21:28;16.92;;;8.90;;
75746;SDS011;64363;52.198;21.020;2023-04-25T08:23:54;16.08;;;8.88;;
75746;SDS011;64363;52.198;21.020;2023-04-25T08:26:19;12.95;;;8.30;;
75746;SDS011;64363;52.198;21.020;2023-04-25T08:28:45;15.25;;;9.18;;
75746;SDS011;64363;52.198;21.020;2023-04-25T08:31:11;13.88;;;7.78;;
75746;SDS011;64363;52.198;21.020;2023-04-25T08:33:37;11.88;;;7.28;;
75746;SDS011;64363;52.198;21.020;2023-04-25T08:36:03;10.95;;;7.75;;
75746;SDS011;64363;52.198;21.020;2023-04-25T08:38:29;11.95;;;7.80;;
75746;SDS011;64363;52.198;21.020;2023-04-25T08:40:54;12.90;;;8.35;;
75746;SDS011;64363;52.198;21.020;2023-04-25T08:43:22;13.65;;;8.18;;
75746;SDS011;64363;52.198;21.020;2023-04-25T08:45:48;12.45;;;8.05;;
75746;SDS011;64363;52.198;21.020;2023-04-25T08:48:15;14.13;;;8.90;;
75746;SDS011;64363;52.198;21.020;2023-04-25T08:50:45;16.95;;;9.43;;
75746;SDS011;64363;52.198;21.020;2023-04-25T08:53:16;13.32;;;9.27;;
75746;SDS011;64363;52.198;21.020;2023-04-25T08:55:46;16.58;;;9.07;;
75746;SDS011;64363;52.198;21.020;2023-04-25T08:58:15;16.42;;;10.38;;
75746;SDS011;64363;52.198;21.020;2023-04-25T09:00:41;14.23;;;9.60;;
75746;SDS011;64363;52.198;21.020;2023-04-25T09:03:07;15.68;;;9.57;;
75746;SDS011;64363;52.198;21.020;2023-04-25T09:05:33;15.18;;;9.30;;
75746;SDS011;64363;52.198;21.020;2023-04-25T09:08:00;14.35;;;10.27;;
75746;SDS011;64363;52.198;21.020;2023-04-25T09:10:26;13.93;;;9.57;;
75746;SDS011;64363;52.198;21.020;2023-04-25T09:13:05;13.50;;;9.43;;
75746;SDS011;64363;52.198;21.020;2023-04-25T09:15:46;15.95;;;9.15;;
75746;SDS011;64363;52.198;21.020;2023-04-25T09:18:12;13.55;;;9.73;;
75746;SDS011;64363;52.198;21.020;2023-04-25T09:20:44;13.70;;;9.15;;
75746;SDS011;64363;52.198;21.020;2023-04-25T09:23:10;13.25;;;8.52;;
75746;SDS011;64363;52.198;21.020;2023-04-25T09:25:36;15.80;;;10.43;;
75746;SDS011;64363;52.198;21.020;2023-04-25T09:28:06;20.23;;;11.82;;
75746;SDS011;64363;52.198;21.020;2023-04-25T09:30:32;15.65;;;11.65;;
75746;SDS011;64363;52.198;21.020;2023-04-25T09:33:06;19.48;;;11.60;;
75746;SDS011;64363;52.198;21.020;2023-04-25T09:35:39;20.48;;;12.35;;
75746;SDS011;64363;52.198;21.020;2023-04-25T09:40:40;17.65;;;11.85;;
75746;SDS011;64363;52.198;21.020;2023-04-25T09:43:10;20.08;;;12.20;;
75746;SDS011;64363;52.198;21.020;2023-04-25T09:45:46;20.10;;;12.70;;
75746;SDS011;64363;52.198;21.020;2023-04-25T09:48:19;21.65;;;12.80;;
75746;SDS011;64363;52.198;21.020;2023-04-25T09:53:38;21.30;;;13.90;;
75746;SDS011;64363;52.198;21.020;2023-04-25T09:56:05;22.70;;;13.93;;
75746;SDS011;64363;52.198;21.020;2023-04-25T09:58:33;25.45;;;13.40;;
75746;SDS011;64363;52.198;21.020;2023-04-25T10:01:00;25.05;;;15.00;;
75746;SDS011;64363;52.198;21.020;2023-04-25T10:03:29;23.65;;;14.82;;
75746;SDS011;64363;52.198;21.020;2023-04-25T10:06:00;23.38;;;13.70;;
75746;SDS011;64363;52.198;21.020;2023-04-25T10:08:29;25.10;;;13.82;;
75746;SDS011;64363;52.198;21.020;2023-04-25T10:11:01;25.13;;;13.63;;
75746;SDS011;64363;52.198;21.020;2023-04-25T10:13:29;25.58;;;15.48;;
75746;SDS011;64363;52.198;21.020;2023-04-25T10:15:59;29.63;;;16.48;;
75746;SDS011;64363;52.198;21.020;2023-04-25T10:18:27;23.58;;;15.20;;
75746;SDS011;64363;52.198;21.020;2023-04-25T10:20:57;23.25;;;13.63;;
75746;SDS011;64363;52.198;21.020;2023-04-25T10:23:25;23.58;;;14.10;;
75746;SDS011;64363;52.198;21.020;2023-04-25T10:25:52;20.95;;;13.05;;
75746;SDS011;64363;52.198;21.020;2023-04-25T10:28:19;22.80;;;14.40;;
75746;SDS011;64363;52.198;21.020;2023-04-25T10:30:58;21.65;;;13.77;;
75746;SDS011;64363;52.198;21.020;2023-04-25T10:36:15;23.05;;;13.05;;
75746;SDS011;64363;52.198;21.020;2023-04-25T10:38:44;21.50;;;13.07;;
75746;SDS011;64363;52.198;21.020;2023-04-25T10:41:11;21.17;;;13.52;;
75746;SDS011;64363;52.198;21.020;2023-04-25T10:43:41;24.17;;;13.65;;
75746;SDS011;64363;52.198;21.020;2023-04-25T10:46:18;22.85;;;13.45;;
75746;SDS011;64363;52.198;21.020;2023-04-25T10:48:52;19.70;;;13.38;;
75746;SDS011;64363;52.198;21.020;2023-04-25T10:51:19;24.83;;;14.25;;
75746;SDS011;64363;52.198;21.020;2023-04-25T10:53:48;25.20;;;14.55;;
75746;SDS011;64363;52.198;21.020;2023-04-25T10:56:30;24.27;;;13.70;;
75746;SDS011;64363;52.198;21.020;2023-04-25T10:59:04;20.92;;;13.07;;
75746;SDS011;64363;52.198;21.020;2023-04-25T11:01:35;17.83;;;12.48;;
75746;SDS011;64363;52.198;21.020;2023-04-25T11:04:22;25.10;;;12.95;;
75746;SDS011;64363;52.198;21.020;2023-04-25T11:06:58;22.27;;;12.93;;
75746;SDS011;64363;52.198;21.020;2023-04-25T11:09:34;22.35;;;12.73;;
75746;SDS011;64363;52.198;21.020;2023-04-25T11:12:01;21.42;;;14.38;;
75746;SDS011;64363;52.198;21.020;2023-04-25T11:14:27;30.58;;;15.32;;
75746;SDS011;64363;52.198;21.020;2023-04-25T11:16:53;22.10;;;14.13;;
75746;SDS011;64363;52.198;21.020;2023-04-25T11:19:21;23.33;;;14.85;;
75746;SDS011;64363;52.198;21.020;2023-04-25T11:21:47;21.88;;;14.52;;
75746;SDS011;64363;52.198;21.020;2023-04-25T11:24:13;21.73;;;14.27;;
75746;SDS011;64363;52.198;21.020;2023-04-25T11:26:43;22.80;;;15.07;;
75746;SDS011;64363;52.198;21.020;2023-04-25T11:29:11;22.10;;;15.18;;
75746;SDS011;64363;52.198;21.020;2023-04-25T11:31:37;20.10;;;13.82;;
75746;SDS011;64363;52.198;21.020;2023-04-25T11:34:03;20.08;;;14.00;;
75746;SDS011;64363;52.198;21.020;2023-04-25T11:36:28;22.40;;;14.18;;
75746;SDS011;64363;52.198;21.020;2023-04-25T11:38:56;22.00;;;15.50;;
75746;SDS011;64363;52.198;21.020;2023-04-25T11:41:22;22.77;;;15.52;;
75746;SDS011;64363;52.198;21.020;2023-04-25T11:43:48;21.45;;;15.88;;
75746;SDS011;64363;52.198;21.020;2023-04-25T11:46:15;21.55;;;15.00;;
75746;SDS011;64363;52.198;21.020;2023-04-25T11:48:41;19.55;;;14.32;;
75746;SDS011;64363;52.198;21.020;2023-04-25T11:51:07;20.90;;;13.77;;
75746;SDS011;64363;52.198;21.020;2023-04-25T11:53:34;19.15;;;13.73;;
75746;SDS011;64363;52.198;21.020;2023-04-25T11:56:01;22.42;;;14.73;;
75746;SDS011;64363;52.198;21.020;2023-04-25T11:58:27;23.70;;;14.40;;
75746;SDS011;64363;52.198;21.020;2023-04-25T12:00:52;18.13;;;13.20;;
75746;SDS011;64363;52.198;21.020;2023-04-25T12:03:18;19.48;;;13.93;;
75746;SDS011;64363;52.198;21.020;2023-04-25T12:05:44;19.33;;;13.20;;
75746;SDS011;64363;52.198;21.020;2023-04-25T12:10:43;23.25;;;14.73;;
75746;SDS011;64363;52.198;21.020;2023-04-25T12:13:20;18.80;;;13.00;;
75746;SDS011;64363;52.198;21.020;2023-04-25T12:15:48;17.65;;;13.07;;
75746;SDS011;64363;52.198;21.020;2023-04-25T12:18:14;18.25;;;11.32;;
75746;SDS011;64363;52.198;21.020;2023-04-25T12:20:41;18.67;;;12.70;;
75746;SDS011;64363;52.198;21.020;2023-04-25T12:23:07;17.35;;;12.10;;
75746;SDS011;64363;52.198;21.020;2023-04-25T12:25:42;21.48;;;13.48;;
75746;SDS011;64363;52.198;21.020;2023-04-25T12:28:18;19.63;;;11.50;;
75746;SDS011;64363;52.198;21.020;2023-04-25T12:31:18;17.75;;;10.02;;
75746;SDS011;64363;52.198;21.020;2023-04-25T12:33:37;15.70;;;10.43;;
75746;SDS011;64363;52.198;21.020;2023-04-25T12:36:04;12.52;;;8.20;;
75746;SDS011;64363;52.198;21.020;2023-04-25T12:38:38;15.48;;;11.02;;
75746;SDS011;64363;52.198;21.020;2023-04-25T12:41:05;14.35;;;9.50;;
75746;SDS011;64363;52.198;21.020;2023-04-25T12:43:32;15.38;;;10.00;;
75746;SDS011;64363;52.198;21.020;2023-04-25T12:45:57;13.73;;;9.27;;
75746;SDS011;64363;52.198;21.020;2023-04-25T12:48:24;12.52;;;8.45;;
75746;SDS011;64363;52.198;21.020;2023-04-25T12:50:50;12.63;;;8.52;;
75746;SDS011;64363;52.198;21.020;2023-04-25T12:53:17;12.20;;;8.55;;
75746;SDS011;64363;52.198;21.020;2023-04-25T12:55:44;12.38;;;8.57;;
75746;SDS011;64363;52.198;21.020;2023-04-25T12:58:12;12.50;;;8.68;;
75746;SDS011;64363;52.198;21.020;2023-04-25T13:00:38;17.60;;;8.95;;
75746;SDS011;64363;52.198;21.020;2023-04-25T13:03:04;13.05;;;9.10;;
75746;SDS011;64363;52.198;21.020;2023-04-25T13:05:30;12.80;;;7.82;;
75746;SDS011;64363;52.198;21.020;2023-04-25T13:07:56;13.63;;;9.23;;
75746;SDS011;64363;52.198;21.020;2023-04-25T13:10:22;12.90;;;8.70;;
75746;SDS011;64363;52.198;21.020;2023-04-25T13:12:48;10.15;;;8.15;;
75746;SDS011;64363;52.198;21.020;2023-04-25T13:15:13;13.07;;;8.05;;
75746;SDS011;64363;52.198;21.020;2023-04-25T13:17:41;19.70;;;8.38;;
75746;SDS011;64363;52.198;21.020;2023-04-25T13:20:07;13.90;;;8.63;;
75746;SDS011;64363;52.198;21.020;2023-04-25T13:22:35;12.05;;;8.20;;
75746;SDS011;64363;52.198;21.020;2023-04-25T13:25:03;10.30;;;7.60;;
75746;SDS011;64363;52.198;21.020;2023-04-25T13:27:29;11.50;;;6.85;;
75746;SDS011;64363;52.198;21.020;2023-04-25T13:29:57;14.85;;;7.88;;
75746;SDS011;64363;52.198;21.020;2023-04-25T13:32:23;11.75;;;7.32;;
75746;SDS011;64363;52.198;21.020;2023-04-25T13:34:49;10.13;;;6.88;;
75746;SDS011;64363;52.198;21.020;2023-04-25T13:37:16;10.52;;;6.88;;
75746;SDS011;64363;52.198;21.020;2023-04-25T13:39:42;10.48;;;6.82;;
75746;SDS011;64363;52.198;21.020;2023-04-25T13:42:08;12.07;;;7.18;;
75746;SDS011;64363;52.198;21.020;2023-04-25T13:44:33;9.20;;;6.47;;
75746;SDS011;64363;52.198;21.020;2023-04-25T13:46:59;10.15;;;7.28;;
75746;SDS011;64363;52.198;21.020;2023-04-25T13:49:26;9.82;;;6.78;;
75746;SDS011;64363;52.198;21.020;2023-04-25T13:51:52;13.13;;;7.30;;
75746;SDS011;64363;52.198;21.020;2023-04-25T13:54:17;10.77;;;7.43;;
75746;SDS011;64363;52.198;21.020;2023-04-25T13:56:43;10.80;;;8.05;;
75746;SDS011;64363;52.198;21.020;2023-04-25T13:59:09;12.63;;;8.05;;
75746;SDS011;64363;52.198;21.020;2023-04-25T14:01:35;10.20;;;8.05;;
75746;SDS011;64363;52.198;21.020;2023-04-25T14:04:01;12.13;;;8.73;;
75746;SDS011;64363;52.198;21.020;2023-04-25T14:06:29;14.43;;;9.07;;
75746;SDS011;64363;52.198;21.020;2023-04-25T14:08:55;13.20;;;8.32;;
75746;SDS011;64363;52.198;21.020;2023-04-25T14:11:22;12.25;;;7.75;;
75746;SDS011;64363;52.198;21.020;2023-04-25T14:13:47;11.95;;;8.07;;
75746;SDS011;64363;52.198;21.020;2023-04-25T14:16:15;12.98;;;8.35;;
75746;SDS011;64363;52.198;21.020;2023-04-25T14:18:41;13.45;;;8.80;;
75746;SDS011;64363;52.198;21.020;2023-04-25T14:21:07;15.52;;;9.27;;